sensor_id;sensor_type;location;lat;lon;timestamp;P1;durP1;ratioP1;P2;durP2;ratioP2
3847;SDS011;1939;48.720;9.166;2023-12-04T00:00:15;32.67;;;15.73;;
3847;SDS011;1939;48.720;9.166;2023-12-04T00:02:41;34.70;;;20.10;;
3847;SDS011;1939;48.720;9.166;2023-12-04T00:05:06;30.50;;;16.23;;
3847;SDS011;1939;48.720;9.166;2023-12-04T00:07:31;34.23;;;16.17;;
3847;SDS011;1939;48.720;9.166;2023-12-04T00:09:57;30.30;;;14.33;;
3847;SDS011;1939;48.720;9.166;2023-12-04T00:12:22;33.53;;;16.77;;
3847;SDS011;1939;48.720;9.166;2023-12-04T00:14:47;37.33;;;18.77;;
3847;SDS011;1939;48.720;9.166;2023-12-04T00:17:12;31.53;;;15.60;;
3847;SDS011;1939;48.720;9.166;2023-12-04T00:19:37;33.90;;;15.40;;
3847;SDS011;1939;48.720;9.166;2023-12-04T00:22:03;32.90;;;16.23;;
3847;SDS011;1939;48.720;9.166;2023-12-04T00:24:28;35.77;;;16.57;;
3847;SDS011;1939;48.720;9.166;2023-12-04T00:26:53;29.43;;;16.37;;
3847;SDS011;1939;48.720;9.166;2023-12-04T00:29:19;33.13;;;15.67;;
3847;SDS011;1939;48.720;9.166;2023-12-04T00:31:44;30.63;;;15.10;;
3847;SDS011;1939;48.720;9.166;2023-12-04T00:34:10;27.93;;;14.80;;
3847;SDS011;1939;48.720;9.166;2023-12-04T00:36:37;28.50;;;14.70;;
3847;SDS011;1939;48.720;9.166;2023-12-04T00:39:02;26.20;;;14.07;;
3847;SDS011;1939;48.720;9.166;2023-12-04T00:41:28;35.40;;;17.17;;
3847;SDS011;1939;48.720;9.166;2023-12-04T00:43:54;27.33;;;13.67;;
3847;SDS011;1939;48.720;9.166;2023-12-04T00:46:19;32.53;;;14.47;;
3847;SDS011;1939;48.720;9.166;2023-12-04T00:48:44;33.67;;;14.90;;
3847;SDS011;1939;48.720;9.166;2023-12-04T00:51:11;30.97;;;16.10;;
3847;SDS011;1939;48.720;9.166;2023-12-04T00:53:36;29.73;;;14.27;;
3847;SDS011;1939;48.720;9.166;2023-12-04T00:56:01;31.93;;;16.47;;
3847;SDS011;1939;48.720;9.166;2023-12-04T00:58:26;31.07;;;14.80;;
3847;SDS011;1939;48.720;9.166;2023-12-04T01:00:52;29.60;;;14.93;;
3847;SDS011;1939;48.720;9.166;2023-12-04T01:03:17;33.83;;;15.97;;
3847;SDS011;1939;48.720;9.166;2023-12-04T01:05:42;27.80;;;15.67;;
3847;SDS011;1939;48.720;9.166;2023-12-04T01:08:07;27.60;;;13.70;;
3847;SDS011;1939;48.720;9.166;2023-12-04T01:10:33;33.93;;;14.13;;
3847;SDS011;1939;48.720;9.166;2023-12-04T01:12:58;27.53;;;14.63;;
3847;SDS011;1939;48.720;9.166;2023-12-04T01:15:23;31.60;;;16.23;;
3847;SDS011;1939;48.720;9.166;2023-12-04T01:17:48;28.20;;;13.67;;
3847;SDS011;1939;48.720;9.166;2023-12-04T01:20:14;31.33;;;15.63;;
3847;SDS011;1939;48.720;9.166;2023-12-04T01:22:39;26.17;;;13.63;;
3847;SDS011;1939;48.720;9.166;2023-12-04T01:25:04;30.80;;;14.00;;
3847;SDS011;1939;48.720;9.166;2023-12-04T01:27:30;31.80;;;14.33;;
3847;SDS011;1939;48.720;9.166;2023-12-04T01:29:55;27.43;;;12.40;;
3847;SDS011;1939;48.720;9.166;2023-12-04T01:32:20;24.17;;;13.87;;
3847;SDS011;1939;48.720;9.166;2023-12-04T01:34:45;29.20;;;12.87;;
3847;SDS011;1939;48.720;9.166;2023-12-04T01:37:11;26.73;;;13.60;;
3847;SDS011;1939;48.720;9.166;2023-12-04T01:39:36;27.57;;;13.40;;
3847;SDS011;1939;48.720;9.166;2023-12-04T01:42:02;29.23;;;13.60;;
3847;SDS011;1939;48.720;9.166;2023-12-04T01:44:27;31.33;;;14.40;;
3847;SDS011;1939;48.720;9.166;2023-12-04T01:46:52;26.20;;;13.50;;
3847;SDS011;1939;48.720;9.166;2023-12-04T01:49:18;24.00;;;12.53;;
3847;SDS011;1939;48.720;9.166;2023-12-04T01:51:43;32.07;;;14.40;;
3847;SDS011;1939;48.720;9.166;2023-12-04T01:54:09;23.70;;;12.40;;
3847;SDS011;1939;48.720;9.166;2023-12-04T01:56:34;29.47;;;13.63;;
3847;SDS011;1939;48.720;9.166;2023-12-04T01:59:01;27.80;;;13.93;;
3847;SDS011;1939;48.720;9.166;2023-12-04T02:01:26;31.90;;;14.10;;
3847;SDS011;1939;48.720;9.166;2023-12-04T02:03:52;27.27;;;14.80;;
3847;SDS011;1939;48.720;9.166;2023-12-04T02:06:18;27.27;;;13.53;;
3847;SDS011;1939;48.720;9.166;2023-12-04T02:08:46;34.30;;;15.97;;
3847;SDS011;1939;48.720;9.166;2023-12-04T02:11:11;28.00;;;12.67;;
3847;SDS011;1939;48.720;9.166;2023-12-04T02:13:37;36.23;;;15.50;;
3847;SDS011;1939;48.720;9.166;2023-12-04T02:16:03;32.00;;;14.80;;
3847;SDS011;1939;48.720;9.166;2023-12-04T02:18:31;33.27;;;14.00;;
3847;SDS011;1939;48.720;9.166;2023-12-04T02:20:56;25.53;;;13.13;;
3847;SDS011;1939;48.720;9.166;2023-12-04T02:23:21;22.73;;;13.13;;
3847;SDS011;1939;48.720;9.166;2023-12-04T02:25:46;32.47;;;13.10;;
3847;SDS011;1939;48.720;9.166;2023-12-04T02:28:13;32.93;;;14.40;;
3847;SDS011;1939;48.720;9.166;2023-12-04T02:30:39;29.00;;;12.90;;
3847;SDS011;1939;48.720;9.166;2023-12-04T02:33:07;33.43;;;14.67;;
3847;SDS011;1939;48.720;9.166;2023-12-04T02:35:34;31.40;;;14.53;;
3847;SDS011;1939;48.720;9.166;2023-12-04T02:38:00;29.40;;;15.10;;
3847;SDS011;1939;48.720;9.166;2023-12-04T02:40:26;29.83;;;15.40;;
3847;SDS011;1939;48.720;9.166;2023-12-04T02:42:51;35.70;;;15.00;;
3847;SDS011;1939;48.720;9.166;2023-12-04T02:45:17;41.90;;;15.77;;
3847;SDS011;1939;48.720;9.166;2023-12-04T02:47:42;25.80;;;13.57;;
3847;SDS011;1939;48.720;9.166;2023-12-04T02:50:07;30.50;;;14.87;;
3847;SDS011;1939;48.720;9.166;2023-12-04T02:55:35;38.80;;;14.43;;
3847;SDS011;1939;48.720;9.166;2023-12-04T02:58:00;29.50;;;14.30;;
3847;SDS011;1939;48.720;9.166;2023-12-04T03:00:25;26.93;;;12.87;;
3847;SDS011;1939;48.720;9.166;2023-12-04T03:02:51;40.07;;;15.87;;
3847;SDS011;1939;48.720;9.166;2023-12-04T03:05:16;20.60;;;13.30;;
3847;SDS011;1939;48.720;9.166;2023-12-04T03:07:41;40.30;;;15.83;;
3847;SDS011;1939;48.720;9.166;2023-12-04T03:10:07;42.23;;;15.63;;
3847;SDS011;1939;48.720;9.166;2023-12-04T03:12:32;28.00;;;13.13;;
3847;SDS011;1939;48.720;9.166;2023-12-04T03:14:57;33.27;;;16.50;;
3847;SDS011;1939;48.720;9.166;2023-12-04T03:17:22;23.97;;;12.40;;
3847;SDS011;1939;48.720;9.166;2023-12-04T03:19:48;28.50;;;13.63;;
3847;SDS011;1939;48.720;9.166;2023-12-04T03:22:13;25.40;;;12.40;;
3847;SDS011;1939;48.720;9.166;2023-12-04T03:24:38;24.27;;;12.97;;
3847;SDS011;1939;48.720;9.166;2023-12-04T03:27:03;28.53;;;13.57;;
3847;SDS011;1939;48.720;9.166;2023-12-04T03:29:29;27.67;;;13.47;;
3847;SDS011;1939;48.720;9.166;2023-12-04T03:31:54;26.40;;;13.30;;
3847;SDS011;1939;48.720;9.166;2023-12-04T03:34:19;32.43;;;13.20;;
3847;SDS011;1939;48.720;9.166;2023-12-04T03:36:44;29.40;;;12.70;;
3847;SDS011;1939;48.720;9.166;2023-12-04T03:39:10;22.53;;;11.60;;
3847;SDS011;1939;48.720;9.166;2023-12-04T03:41:35;26.07;;;12.83;;
3847;SDS011;1939;48.720;9.166;2023-12-04T03:44:00;28.77;;;13.73;;
3847;SDS011;1939;48.720;9.166;2023-12-04T03:46:25;26.20;;;12.17;;
3847;SDS011;1939;48.720;9.166;2023-12-04T03:48:51;30.10;;;13.10;;
3847;SDS011;1939;48.720;9.166;2023-12-04T03:51:16;22.87;;;11.77;;
3847;SDS011;1939;48.720;9.166;2023-12-04T03:53:41;26.93;;;12.53;;
3847;SDS011;1939;48.720;9.166;2023-12-04T03:56:07;25.23;;;12.87;;
3847;SDS011;1939;48.720;9.166;2023-12-04T03:58:32;28.77;;;13.03;;
3847;SDS011;1939;48.720;9.166;2023-12-04T04:00:57;30.23;;;13.90;;
3847;SDS011;1939;48.720;9.166;2023-12-04T04:03:22;21.60;;;12.43;;
3847;SDS011;1939;48.720;9.166;2023-12-04T04:05:48;26.43;;;13.00;;
3847;SDS011;1939;48.720;9.166;2023-12-04T04:08:13;32.13;;;13.10;;
3847;SDS011;1939;48.720;9.166;2023-12-04T04:10:38;25.27;;;14.00;;
3847;SDS011;1939;48.720;9.166;2023-12-04T04:13:03;35.63;;;13.90;;
3847;SDS011;1939;48.720;9.166;2023-12-04T04:15:28;25.73;;;12.60;;
3847;SDS011;1939;48.720;9.166;2023-12-04T04:17:54;29.50;;;13.10;;
3847;SDS011;1939;48.720;9.166;2023-12-04T04:20:20;29.47;;;12.90;;
3847;SDS011;1939;48.720;9.166;2023-12-04T04:22:47;28.00;;;12.77;;
3847;SDS011;1939;48.720;9.166;2023-12-04T04:25:12;26.17;;;13.50;;
3847;SDS011;1939;48.720;9.166;2023-12-04T04:27:37;26.97;;;13.73;;
3847;SDS011;1939;48.720;9.166;2023-12-04T04:30:03;33.30;;;13.73;;
3847;SDS011;1939;48.720;9.166;2023-12-04T04:32:28;28.60;;;14.00;;
3847;SDS011;1939;48.720;9.166;2023-12-04T04:34:54;30.23;;;13.83;;
3847;SDS011;1939;48.720;9.166;2023-12-04T04:37:19;28.10;;;13.93;;
3847;SDS011;1939;48.720;9.166;2023-12-04T04:39:44;31.97;;;14.37;;
3847;SDS011;1939;48.720;9.166;2023-12-04T04:42:10;31.27;;;14.60;;
3847;SDS011;1939;48.720;9.166;2023-12-04T04:44:35;38.93;;;14.20;;
3847;SDS011;1939;48.720;9.166;2023-12-04T04:47:00;25.80;;;12.77;;
3847;SDS011;1939;48.720;9.166;2023-12-04T04:49:25;31.83;;;14.23;;
3847;SDS011;1939;48.720;9.166;2023-12-04T04:51:50;28.30;;;12.83;;
3847;SDS011;1939;48.720;9.166;2023-12-04T04:54:16;23.13;;;12.70;;
3847;SDS011;1939;48.720;9.166;2023-12-04T04:56:41;30.30;;;14.50;;
3847;SDS011;1939;48.720;9.166;2023-12-04T04:59:06;27.53;;;14.13;;
3847;SDS011;1939;48.720;9.166;2023-12-04T05:02:33;24.50;;;12.13;;
3847;SDS011;1939;48.720;9.166;2023-12-04T05:05:00;24.53;;;11.37;;
3847;SDS011;1939;48.720;9.166;2023-12-04T05:07:25;29.77;;;11.57;;
3847;SDS011;1939;48.720;9.166;2023-12-04T05:09:50;24.70;;;12.03;;
3847;SDS011;1939;48.720;9.166;2023-12-04T05:12:15;19.60;;;10.80;;
3847;SDS011;1939;48.720;9.166;2023-12-04T05:14:41;24.10;;;11.70;;
3847;SDS011;1939;48.720;9.166;2023-12-04T05:17:06;21.60;;;10.70;;
3847;SDS011;1939;48.720;9.166;2023-12-04T05:19:31;26.70;;;10.03;;
3847;SDS011;1939;48.720;9.166;2023-12-04T05:21:56;22.53;;;10.07;;
3847;SDS011;1939;48.720;9.166;2023-12-04T05:24:21;23.53;;;12.50;;
3847;SDS011;1939;48.720;9.166;2023-12-04T05:26:47;32.73;;;12.67;;
3847;SDS011;1939;48.720;9.166;2023-12-04T05:29:12;22.50;;;11.67;;
3847;SDS011;1939;48.720;9.166;2023-12-04T05:31:37;22.70;;;11.53;;
3847;SDS011;1939;48.720;9.166;2023-12-04T05:34:02;26.93;;;11.93;;
3847;SDS011;1939;48.720;9.166;2023-12-04T05:36:28;26.27;;;12.17;;
3847;SDS011;1939;48.720;9.166;2023-12-04T05:38:53;26.57;;;12.07;;
3847;SDS011;1939;48.720;9.166;2023-12-04T05:41:18;21.33;;;11.23;;
3847;SDS011;1939;48.720;9.166;2023-12-04T05:43:44;32.87;;;12.53;;
3847;SDS011;1939;48.720;9.166;2023-12-04T05:46:09;29.30;;;12.77;;
3847;SDS011;1939;48.720;9.166;2023-12-04T05:48:34;28.27;;;11.87;;
3847;SDS011;1939;48.720;9.166;2023-12-04T05:51:00;27.77;;;11.43;;
3847;SDS011;1939;48.720;9.166;2023-12-04T05:53:25;27.07;;;13.43;;
3847;SDS011;1939;48.720;9.166;2023-12-04T05:55:50;23.10;;;11.33;;
3847;SDS011;1939;48.720;9.166;2023-12-04T05:58:16;27.33;;;12.30;;
3847;SDS011;1939;48.720;9.166;2023-12-04T06:00:41;25.27;;;12.50;;
3847;SDS011;1939;48.720;9.166;2023-12-04T06:03:06;24.37;;;11.50;;
3847;SDS011;1939;48.720;9.166;2023-12-04T06:05:31;26.40;;;12.77;;
3847;SDS011;1939;48.720;9.166;2023-12-04T06:07:56;25.40;;;13.00;;
3847;SDS011;1939;48.720;9.166;2023-12-04T06:10:23;28.10;;;14.27;;
3847;SDS011;1939;48.720;9.166;2023-12-04T06:12:48;25.23;;;12.70;;
3847;SDS011;1939;48.720;9.166;2023-12-04T06:15:13;24.20;;;12.67;;
3847;SDS011;1939;48.720;9.166;2023-12-04T06:17:38;28.37;;;13.90;;
3847;SDS011;1939;48.720;9.166;2023-12-04T06:20:04;26.40;;;13.37;;
3847;SDS011;1939;48.720;9.166;2023-12-04T06:22:31;25.80;;;12.87;;
3847;SDS011;1939;48.720;9.166;2023-12-04T06:24:56;23.20;;;12.27;;
3847;SDS011;1939;48.720;9.166;2023-12-04T06:27:22;25.93;;;12.67;;
3847;SDS011;1939;48.720;9.166;2023-12-04T06:29:48;26.93;;;13.47;;
3847;SDS011;1939;48.720;9.166;2023-12-04T06:32:13;26.23;;;12.63;;
3847;SDS011;1939;48.720;9.166;2023-12-04T06:34:39;22.97;;;11.10;;
3847;SDS011;1939;48.720;9.166;2023-12-04T06:37:13;32.60;;;14.10;;
3847;SDS011;1939;48.720;9.166;2023-12-04T06:39:39;28.30;;;13.47;;
3847;SDS011;1939;48.720;9.166;2023-12-04T06:42:05;24.27;;;11.90;;
3847;SDS011;1939;48.720;9.166;2023-12-04T06:44:31;23.93;;;12.37;;
3847;SDS011;1939;48.720;9.166;2023-12-04T06:46:56;25.23;;;10.63;;
3847;SDS011;1939;48.720;9.166;2023-12-04T06:49:24;29.20;;;13.90;;
3847;SDS011;1939;48.720;9.166;2023-12-04T06:51:50;29.17;;;13.40;;
3847;SDS011;1939;48.720;9.166;2023-12-04T06:54:15;27.10;;;12.87;;
3847;SDS011;1939;48.720;9.166;2023-12-04T06:56:43;27.83;;;12.80;;
3847;SDS011;1939;48.720;9.166;2023-12-04T06:59:08;23.20;;;11.87;;
3847;SDS011;1939;48.720;9.166;2023-12-04T07:01:33;28.90;;;12.63;;
3847;SDS011;1939;48.720;9.166;2023-12-04T07:03:58;22.43;;;10.43;;
3847;SDS011;1939;48.720;9.166;2023-12-04T07:06:23;24.63;;;12.27;;
3847;SDS011;1939;48.720;9.166;2023-12-04T07:08:49;26.57;;;11.40;;
3847;SDS011;1939;48.720;9.166;2023-12-04T07:11:14;29.23;;;13.60;;
3847;SDS011;1939;48.720;9.166;2023-12-04T07:13:40;23.67;;;12.87;;
3847;SDS011;1939;48.720;9.166;2023-12-04T07:16:06;25.73;;;11.77;;
3847;SDS011;1939;48.720;9.166;2023-12-04T07:18:31;19.77;;;11.80;;
3847;SDS011;1939;48.720;9.166;2023-12-04T07:20:57;17.53;;;10.40;;
3847;SDS011;1939;48.720;9.166;2023-12-04T07:23:22;26.57;;;12.20;;
3847;SDS011;1939;48.720;9.166;2023-12-04T07:25:47;26.27;;;11.50;;
3847;SDS011;1939;48.720;9.166;2023-12-04T07:28:12;20.83;;;10.23;;
3847;SDS011;1939;48.720;9.166;2023-12-04T07:30:38;24.63;;;12.67;;
3847;SDS011;1939;48.720;9.166;2023-12-04T07:33:03;20.53;;;11.33;;
3847;SDS011;1939;48.720;9.166;2023-12-04T07:35:29;22.20;;;12.53;;
3847;SDS011;1939;48.720;9.166;2023-12-04T07:37:54;23.97;;;12.07;;
3847;SDS011;1939;48.720;9.166;2023-12-04T07:40:19;23.50;;;12.00;;
3847;SDS011;1939;48.720;9.166;2023-12-04T07:42:46;24.73;;;12.10;;
3847;SDS011;1939;48.720;9.166;2023-12-04T07:45:11;21.60;;;10.90;;
3847;SDS011;1939;48.720;9.166;2023-12-04T07:47:36;23.47;;;11.43;;
3847;SDS011;1939;48.720;9.166;2023-12-04T07:50:02;28.13;;;14.63;;
3847;SDS011;1939;48.720;9.166;2023-12-04T07:52:27;26.83;;;13.27;;
3847;SDS011;1939;48.720;9.166;2023-12-04T07:54:52;28.80;;;14.77;;
3847;SDS011;1939;48.720;9.166;2023-12-04T07:57:17;27.97;;;14.17;;
3847;SDS011;1939;48.720;9.166;2023-12-04T07:59:43;23.23;;;11.07;;
3847;SDS011;1939;48.720;9.166;2023-12-04T08:02:08;25.63;;;11.00;;
3847;SDS011;1939;48.720;9.166;2023-12-04T08:04:34;25.00;;;11.70;;
3847;SDS011;1939;48.720;9.166;2023-12-04T08:06:59;23.27;;;11.97;;
3847;SDS011;1939;48.720;9.166;2023-12-04T08:09:24;27.90;;;14.33;;
3847;SDS011;1939;48.720;9.166;2023-12-04T08:11:49;23.40;;;12.53;;
3847;SDS011;1939;48.720;9.166;2023-12-04T08:14:15;21.60;;;11.73;;
3847;SDS011;1939;48.720;9.166;2023-12-04T08:16:41;23.50;;;10.77;;
3847;SDS011;1939;48.720;9.166;2023-12-04T08:19:06;28.27;;;13.97;;
3847;SDS011;1939;48.720;9.166;2023-12-04T08:21:31;22.77;;;11.80;;
3847;SDS011;1939;48.720;9.166;2023-12-04T08:23:57;31.20;;;13.93;;
3847;SDS011;1939;48.720;9.166;2023-12-04T08:26:22;19.30;;;11.43;;
3847;SDS011;1939;48.720;9.166;2023-12-04T08:28:49;23.47;;;10.90;;
3847;SDS011;1939;48.720;9.166;2023-12-04T08:31:14;21.83;;;11.13;;
3847;SDS011;1939;48.720;9.166;2023-12-04T08:33:40;23.83;;;11.20;;
3847;SDS011;1939;48.720;9.166;2023-12-04T08:36:05;23.20;;;12.20;;
3847;SDS011;1939;48.720;9.166;2023-12-04T08:38:31;26.07;;;10.57;;
3847;SDS011;1939;48.720;9.166;2023-12-04T08:40:56;27.67;;;13.47;;
3847;SDS011;1939;48.720;9.166;2023-12-04T08:43:21;33.30;;;13.30;;
3847;SDS011;1939;48.720;9.166;2023-12-04T08:45:46;23.27;;;11.80;;
3847;SDS011;1939;48.720;9.166;2023-12-04T08:48:11;26.67;;;12.03;;
3847;SDS011;1939;48.720;9.166;2023-12-04T08:50:37;28.43;;;11.97;;
3847;SDS011;1939;48.720;9.166;2023-12-04T08:53:03;26.83;;;13.07;;
3847;SDS011;1939;48.720;9.166;2023-12-04T08:55:28;24.80;;;12.40;;
3847;SDS011;1939;48.720;9.166;2023-12-04T08:57:53;24.93;;;11.97;;
3847;SDS011;1939;48.720;9.166;2023-12-04T09:00:19;24.17;;;11.23;;
3847;SDS011;1939;48.720;9.166;2023-12-04T09:02:44;21.40;;;10.77;;
3847;SDS011;1939;48.720;9.166;2023-12-04T09:05:09;24.53;;;10.73;;
3847;SDS011;1939;48.720;9.166;2023-12-04T09:07:35;27.40;;;12.20;;
3847;SDS011;1939;48.720;9.166;2023-12-04T09:10:00;21.83;;;10.27;;
3847;SDS011;1939;48.720;9.166;2023-12-04T09:12:26;30.67;;;12.47;;
3847;SDS011;1939;48.720;9.166;2023-12-04T09:14:51;20.90;;;11.40;;
3847;SDS011;1939;48.720;9.166;2023-12-04T09:17:17;20.27;;;10.67;;
3847;SDS011;1939;48.720;9.166;2023-12-04T09:19:42;20.50;;;10.37;;
3847;SDS011;1939;48.720;9.166;2023-12-04T09:22:07;22.87;;;10.67;;
3847;SDS011;1939;48.720;9.166;2023-12-04T09:24:33;26.83;;;11.13;;
3847;SDS011;1939;48.720;9.166;2023-12-04T09:26:58;22.77;;;11.30;;
3847;SDS011;1939;48.720;9.166;2023-12-04T09:29:24;20.13;;;9.63;;
3847;SDS011;1939;48.720;9.166;2023-12-04T09:31:51;22.67;;;9.53;;
3847;SDS011;1939;48.720;9.166;2023-12-04T09:34:16;22.37;;;10.30;;
3847;SDS011;1939;48.720;9.166;2023-12-04T09:36:43;19.70;;;11.30;;
3847;SDS011;1939;48.720;9.166;2023-12-04T09:39:08;26.30;;;10.83;;
3847;SDS011;1939;48.720;9.166;2023-12-04T09:41:34;23.77;;;12.37;;
3847;SDS011;1939;48.720;9.166;2023-12-04T09:43:59;21.73;;;11.50;;
3847;SDS011;1939;48.720;9.166;2023-12-04T09:46:26;21.03;;;11.27;;
3847;SDS011;1939;48.720;9.166;2023-12-04T09:48:51;24.97;;;12.70;;
3847;SDS011;1939;48.720;9.166;2023-12-04T09:51:17;22.23;;;11.30;;
3847;SDS011;1939;48.720;9.166;2023-12-04T09:53:43;22.07;;;11.40;;
3847;SDS011;1939;48.720;9.166;2023-12-04T09:56:11;24.20;;;10.43;;
3847;SDS011;1939;48.720;9.166;2023-12-04T09:58:39;20.70;;;10.83;;
3847;SDS011;1939;48.720;9.166;2023-12-04T10:01:05;18.30;;;9.83;;
3847;SDS011;1939;48.720;9.166;2023-12-04T10:03:31;16.07;;;8.53;;
3847;SDS011;1939;48.720;9.166;2023-12-04T10:05:57;14.33;;;8.10;;
3847;SDS011;1939;48.720;9.166;2023-12-04T10:08:23;17.27;;;9.20;;
3847;SDS011;1939;48.720;9.166;2023-12-04T10:10:48;16.30;;;8.83;;
3847;SDS011;1939;48.720;9.166;2023-12-04T10:13:13;22.53;;;10.23;;
3847;SDS011;1939;48.720;9.166;2023-12-04T10:15:48;17.87;;;8.13;;
3847;SDS011;1939;48.720;9.166;2023-12-04T10:18:27;16.13;;;7.53;;
3847;SDS011;1939;48.720;9.166;2023-12-04T10:20:55;13.73;;;7.50;;
3847;SDS011;1939;48.720;9.166;2023-12-04T10:23:21;15.37;;;8.00;;
3847;SDS011;1939;48.720;9.166;2023-12-04T10:25:47;14.37;;;8.30;;
3847;SDS011;1939;48.720;9.166;2023-12-04T10:28:14;14.53;;;6.87;;
3847;SDS011;1939;48.720;9.166;2023-12-04T10:30:40;22.33;;;8.73;;
3847;SDS011;1939;48.720;9.166;2023-12-04T10:33:06;13.13;;;8.00;;
3847;SDS011;1939;48.720;9.166;2023-12-04T10:35:33;15.50;;;7.67;;
3847;SDS011;1939;48.720;9.166;2023-12-04T10:37:58;16.80;;;7.80;;
3847;SDS011;1939;48.720;9.166;2023-12-04T10:40:28;16.70;;;7.20;;
3847;SDS011;1939;48.720;9.166;2023-12-04T10:45:34;16.43;;;7.10;;
3847;SDS011;1939;48.720;9.166;2023-12-04T10:48:00;15.70;;;8.23;;
3847;SDS011;1939;48.720;9.166;2023-12-04T10:50:26;12.40;;;6.77;;
3847;SDS011;1939;48.720;9.166;2023-12-04T10:52:52;17.80;;;8.87;;
3847;SDS011;1939;48.720;9.166;2023-12-04T10:55:18;13.60;;;6.67;;
3847;SDS011;1939;48.720;9.166;2023-12-04T10:57:44;14.80;;;7.87;;
3847;SDS011;1939;48.720;9.166;2023-12-04T11:00:10;16.00;;;8.33;;
3847;SDS011;1939;48.720;9.166;2023-12-04T11:02:35;13.57;;;8.30;;
3847;SDS011;1939;48.720;9.166;2023-12-04T11:05:05;18.03;;;8.33;;
3847;SDS011;1939;48.720;9.166;2023-12-04T11:07:34;14.60;;;7.63;;
3847;SDS011;1939;48.720;9.166;2023-12-04T11:10:01;12.57;;;7.37;;
3847;SDS011;1939;48.720;9.166;2023-12-04T11:12:27;30.07;;;7.90;;
3847;SDS011;1939;48.720;9.166;2023-12-04T11:14:56;14.90;;;8.50;;
3847;SDS011;1939;48.720;9.166;2023-12-04T11:17:22;14.70;;;7.90;;
3847;SDS011;1939;48.720;9.166;2023-12-04T11:19:57;14.23;;;6.67;;
3847;SDS011;1939;48.720;9.166;2023-12-04T11:22:25;15.23;;;7.77;;
3847;SDS011;1939;48.720;9.166;2023-12-04T11:24:50;16.00;;;8.77;;
3847;SDS011;1939;48.720;9.166;2023-12-04T11:27:18;14.20;;;7.17;;
3847;SDS011;1939;48.720;9.166;2023-12-04T11:29:45;17.00;;;8.10;;
3847;SDS011;1939;48.720;9.166;2023-12-04T11:32:17;10.70;;;6.10;;
3847;SDS011;1939;48.720;9.166;2023-12-04T11:34:50;11.70;;;6.87;;
3847;SDS011;1939;48.720;9.166;2023-12-04T11:37:15;16.93;;;7.93;;
3847;SDS011;1939;48.720;9.166;2023-12-04T11:39:40;14.17;;;7.70;;
3847;SDS011;1939;48.720;9.166;2023-12-04T11:42:06;10.97;;;6.97;;
3847;SDS011;1939;48.720;9.166;2023-12-04T11:44:32;17.20;;;7.03;;
3847;SDS011;1939;48.720;9.166;2023-12-04T11:47:02;14.80;;;7.67;;
3847;SDS011;1939;48.720;9.166;2023-12-04T11:49:28;13.00;;;6.43;;
3847;SDS011;1939;48.720;9.166;2023-12-04T11:51:54;13.20;;;8.97;;
3847;SDS011;1939;48.720;9.166;2023-12-04T11:54:21;11.93;;;6.53;;
3847;SDS011;1939;48.720;9.166;2023-12-04T11:56:59;15.43;;;7.70;;
3847;SDS011;1939;48.720;9.166;2023-12-04T11:59:25;26.07;;;11.07;;
3847;SDS011;1939;48.720;9.166;2023-12-04T12:01:52;19.30;;;8.57;;
3847;SDS011;1939;48.720;9.166;2023-12-04T12:04:18;22.07;;;11.43;;
3847;SDS011;1939;48.720;9.166;2023-12-04T12:06:44;19.40;;;10.03;;
3847;SDS011;1939;48.720;9.166;2023-12-04T12:09:09;21.73;;;10.43;;
3847;SDS011;1939;48.720;9.166;2023-12-04T12:11:34;28.13;;;11.73;;
3847;SDS011;1939;48.720;9.166;2023-12-04T12:14:00;17.47;;;9.23;;
3847;SDS011;1939;48.720;9.166;2023-12-04T12:16:26;12.40;;;7.30;;
3847;SDS011;1939;48.720;9.166;2023-12-04T12:18:51;22.67;;;6.97;;
3847;SDS011;1939;48.720;9.166;2023-12-04T12:21:17;14.07;;;7.90;;
3847;SDS011;1939;48.720;9.166;2023-12-04T12:23:42;15.10;;;7.70;;
3847;SDS011;1939;48.720;9.166;2023-12-04T12:26:08;18.73;;;8.60;;
3847;SDS011;1939;48.720;9.166;2023-12-04T12:28:34;19.03;;;8.43;;
3847;SDS011;1939;48.720;9.166;2023-12-04T12:31:03;17.47;;;9.20;;
3847;SDS011;1939;48.720;9.166;2023-12-04T12:33:28;14.43;;;8.33;;
3847;SDS011;1939;48.720;9.166;2023-12-04T12:35:53;16.60;;;8.60;;
3847;SDS011;1939;48.720;9.166;2023-12-04T12:38:18;20.00;;;10.13;;
3847;SDS011;1939;48.720;9.166;2023-12-04T12:40:44;20.07;;;10.70;;
3847;SDS011;1939;48.720;9.166;2023-12-04T12:43:09;20.07;;;10.60;;
3847;SDS011;1939;48.720;9.166;2023-12-04T12:45:44;16.13;;;9.63;;
3847;SDS011;1939;48.720;9.166;2023-12-04T12:48:12;22.80;;;12.00;;
3847;SDS011;1939;48.720;9.166;2023-12-04T12:50:38;24.97;;;11.20;;
3847;SDS011;1939;48.720;9.166;2023-12-04T12:53:03;24.50;;;12.13;;
3847;SDS011;1939;48.720;9.166;2023-12-04T12:55:28;23.47;;;11.67;;
3847;SDS011;1939;48.720;9.166;2023-12-04T12:57:56;21.90;;;11.70;;
3847;SDS011;1939;48.720;9.166;2023-12-04T13:00:22;18.67;;;10.77;;
3847;SDS011;1939;48.720;9.166;2023-12-04T13:02:48;33.20;;;14.40;;
3847;SDS011;1939;48.720;9.166;2023-12-04T13:05:13;30.03;;;12.43;;
3847;SDS011;1939;48.720;9.166;2023-12-04T13:07:38;22.40;;;13.23;;
3847;SDS011;1939;48.720;9.166;2023-12-04T13:10:04;25.30;;;11.70;;
3847;SDS011;1939;48.720;9.166;2023-12-04T13:12:30;26.37;;;13.80;;
3847;SDS011;1939;48.720;9.166;2023-12-04T13:14:55;24.43;;;13.07;;
3847;SDS011;1939;48.720;9.166;2023-12-04T13:17:20;25.30;;;12.00;;
3847;SDS011;1939;48.720;9.166;2023-12-04T13:19:46;22.50;;;12.80;;
3847;SDS011;1939;48.720;9.166;2023-12-04T13:22:11;26.30;;;14.60;;
3847;SDS011;1939;48.720;9.166;2023-12-04T13:24:36;29.23;;;13.13;;
3847;SDS011;1939;48.720;9.166;2023-12-04T13:27:01;26.90;;;12.50;;
3847;SDS011;1939;48.720;9.166;2023-12-04T13:29:27;26.10;;;13.63;;
3847;SDS011;1939;48.720;9.166;2023-12-04T13:31:52;20.40;;;11.50;;
3847;SDS011;1939;48.720;9.166;2023-12-04T13:34:18;25.23;;;12.80;;
3847;SDS011;1939;48.720;9.166;2023-12-04T13:36:43;22.70;;;13.07;;
3847;SDS011;1939;48.720;9.166;2023-12-04T13:39:09;31.53;;;13.67;;
3847;SDS011;1939;48.720;9.166;2023-12-04T13:41:45;22.00;;;13.00;;
3847;SDS011;1939;48.720;9.166;2023-12-04T13:44:29;18.73;;;11.00;;
3847;SDS011;1939;48.720;9.166;2023-12-04T13:46:54;22.37;;;10.37;;
3847;SDS011;1939;48.720;9.166;2023-12-04T13:49:20;21.10;;;10.90;;
3847;SDS011;1939;48.720;9.166;2023-12-04T13:51:45;25.13;;;11.77;;
3847;SDS011;1939;48.720;9.166;2023-12-04T13:54:10;25.50;;;13.77;;
3847;SDS011;1939;48.720;9.166;2023-12-04T13:56:46;26.63;;;13.30;;
3847;SDS011;1939;48.720;9.166;2023-12-04T13:59:18;22.70;;;10.90;;
3847;SDS011;1939;48.720;9.166;2023-12-04T14:01:45;19.63;;;10.93;;
3847;SDS011;1939;48.720;9.166;2023-12-04T14:04:10;29.33;;;13.17;;
3847;SDS011;1939;48.720;9.166;2023-12-04T14:06:35;25.40;;;12.23;;
3847;SDS011;1939;48.720;9.166;2023-12-04T14:09:01;25.17;;;14.10;;
3847;SDS011;1939;48.720;9.166;2023-12-04T14:11:26;26.10;;;15.33;;
3847;SDS011;1939;48.720;9.166;2023-12-04T14:13:51;38.40;;;14.60;;
3847;SDS011;1939;48.720;9.166;2023-12-04T14:16:17;29.27;;;13.70;;
3847;SDS011;1939;48.720;9.166;2023-12-04T14:18:42;32.30;;;16.87;;
3847;SDS011;1939;48.720;9.166;2023-12-04T14:21:08;46.70;;;18.27;;
3847;SDS011;1939;48.720;9.166;2023-12-04T14:23:33;41.30;;;16.17;;
3847;SDS011;1939;48.720;9.166;2023-12-04T14:25:59;24.90;;;13.40;;
3847;SDS011;1939;48.720;9.166;2023-12-04T14:28:24;40.53;;;13.63;;
3847;SDS011;1939;48.720;9.166;2023-12-04T14:30:50;26.33;;;14.97;;
3847;SDS011;1939;48.720;9.166;2023-12-04T14:33:15;26.20;;;14.63;;
3847;SDS011;1939;48.720;9.166;2023-12-04T14:35:40;34.97;;;15.57;;
3847;SDS011;1939;48.720;9.166;2023-12-04T14:38:06;30.50;;;15.57;;
3847;SDS011;1939;48.720;9.166;2023-12-04T14:40:31;28.60;;;15.13;;
3847;SDS011;1939;48.720;9.166;2023-12-04T14:42:56;28.30;;;15.20;;
3847;SDS011;1939;48.720;9.166;2023-12-04T14:45:22;29.93;;;14.83;;
3847;SDS011;1939;48.720;9.166;2023-12-04T14:47:47;31.30;;;14.87;;